Time;durP1;ratioP1;P1;durP2;ratioP2;P2;SDS_P1;SDS_P2;PMS_P1;PMS_P2;Temp;Humidity;BMP_temperature;BMP_pressure;BME280_temperature;BME280_humidity;BME280_pressure;Samples;Min_cycle;Max_cycle;Signal;HPM_P1;HPM_P2
2022/04/12 00:00:40;;;;;;;21.60;15.40;;;;;;;2.56;73.19;100850.09;89742;1273;77490;-66
2022/04/12 00:02:49;;;;;;;25.50;17.10;;;;;;;2.42;73.39;100850.77;89735;1273;81260;-65
2022/04/12 00:04:58;;;;;;;20.20;14.90;;;;;;;2.31;73.39;100851.14;89732;1274;100184;-65
2022/04/12 00:07:08;;;;;;;26.20;15.80;;;;;;;2.22;73.57;100853.30;89726;1274;86356;-65
2022/04/12 00:09:17;;;;;;;21.60;15.30;;;;;;;2.20;73.58;100850.82;89726;1274;94546;-60
2022/04/12 00:11:26;;;;;;;22.90;15.70;;;;;;;2.19;73.68;100854.27;89718;1274;78516;-62
2022/04/12 00:13:35;;;;;;;23.20;16.10;;;;;;;2.19;73.88;100856.74;89744;1274;83285;-60
2022/04/12 00:15:48;;;;;;;21.50;15.60;;;;;;;2.12;73.94;100859.45;89752;1272;99676;-60
2022/04/12 00:20:26;;;;;;;24.10;16.80;;;;;;;1.99;73.88;100858.60;89732;1274;94857;-60
2022/04/12 00:22:35;;;;;;;24.60;16.20;;;;;;;1.86;73.94;100859.27;89730;1274;78063;-60
2022/04/12 00:24:47;;;;;;;21.50;15.90;;;;;;;1.72;73.99;100861.63;89751;1274;80304;-65
2022/04/12 00:26:56;;;;;;;21.80;16.00;;;;;;;1.63;74.13;100859.53;89723;1274;99110;-65
2022/04/12 00:29:05;;;;;;;24.00;15.10;;;;;;;1.52;74.15;100860.05;89735;1274;88374;-65
2022/04/12 00:31:14;;;;;;;23.70;16.20;;;;;;;1.47;74.37;100860.27;89685;1274;94361;-65
2022/04/12 00:33:26;;;;;;;22.00;15.80;;;;;;;1.40;74.47;100861.67;89735;1274;80317;-60
2022/04/12 00:35:38;;;;;;;22.60;14.90;;;;;;;1.35;74.60;100861.88;89734;1273;82680;-60
2022/04/12 00:37:47;;;;;;;21.30;15.30;;;;;;;1.32;74.61;100865.31;89743;1274;99892;-61
2022/04/12 00:39:59;;;;;;;23.80;16.40;;;;;;;1.29;74.80;100862.42;89757;1274;89835;-64
2022/04/12 00:42:10;;;;;;;22.90;15.30;;;;;;;1.21;74.76;100861.10;89727;1274;94207;-67
2022/04/12 00:44:18;;;;;;;22.80;15.70;;;;;;;1.13;74.84;100861.16;89731;1274;77614;-62
2022/04/12 00:46:27;;;;;;;23.40;15.00;;;;;;;1.11;74.98;100855.84;89751;1274;82622;-60
2022/04/12 00:48:37;;;;;;;22.80;15.80;;;;;;;1.06;75.08;100856.54;89739;1274;97978;-60
2022/04/12 00:50:47;;;;;;;23.10;15.50;;;;;;;1.04;74.98;100857.06;89735;1274;88270;-64
2022/04/12 00:53:00;;;;;;;24.80;16.20;;;;;;;0.96;75.14;100859.43;89723;1274;94900;-60
2022/04/12 00:55:12;;;;;;;24.10;15.90;;;;;;;0.88;74.99;100859.86;89739;1274;78414;-65
2022/04/12 00:57:21;;;;;;;23.50;16.00;;;;;;;0.80;75.08;100860.52;89729;1274;83263;-66
2022/04/12 00:59:32;;;;;;;22.10;15.10;;;;;;;0.72;75.07;100861.14;89725;1272;99830;-60
2022/04/12 01:01:42;;;;;;;21.50;15.40;;;;;;;0.70;75.17;100862.40;89740;1274;88854;-60
2022/04/12 01:03:50;;;;;;;22.20;14.80;;;;;;;0.69;75.22;100860.83;89720;1273;95071;-66
2022/04/12 01:06:00;;;;;;;22.00;15.10;;;;;;;0.68;75.38;100863.23;89724;1274;81335;-65
2022/04/12 01:08:12;;;;;;;19.80;14.60;;;;;;;0.62;75.29;100864.87;89760;1274;83273;-60
2022/04/12 01:10:24;;;;;;;23.00;14.60;;;;;;;0.59;75.50;100864.91;89746;1273;100305;-61
2022/04/12 01:12:38;;;;;;;19.70;14.60;;;;;;;0.54;75.54;100865.34;89752;1273;89525;-60
2022/04/12 01:14:47;;;;;;;19.90;14.80;;;;;;;0.51;75.53;100867.31;89742;1273;95774;-60
2022/04/12 01:16:56;;;;;;;21.40;15.70;;;;;;;0.46;75.58;100870.16;89724;1274;77428;-61
2022/04/12 01:19:05;;;;;;;19.60;15.00;;;;;;;0.37;75.57;100868.17;89750;1273;83355;-60
2022/04/12 01:21:15;;;;;;;21.40;14.90;;;;;;;0.26;75.49;100874.30;89742;1273;99163;-60
2022/04/12 01:23:32;;;;;;;20.70;14.70;;;;;;;0.14;75.57;100873.08;89742;1273;89224;-66
2022/04/12 01:25:42;;;;;;;21.10;14.00;;;;;;;0.09;75.74;100879.31;89728;1273;95125;-64
2022/04/12 01:27:51;;;;;;;17.90;13.80;;;;;;;0.05;75.84;100880.27;89624;1276;81497;-64
2022/04/12 01:30:00;;;;;;;20.60;14.60;;;;;;;0.02;75.91;100875.05;89745;1274;81999;-65
2022/04/12 01:32:14;;;;;;;19.10;13.30;;;;;;;0.04;76.09;100877.58;89736;1273;99156;-64
2022/04/12 01:34:25;;;;;;;19.30;13.00;;;;;;;0.03;76.16;100880.13;89728;1273;89284;-60
2022/04/12 01:36:34;;;;;;;19.90;13.60;;;;;;;0.05;76.14;100878.55;89736;1273;95465;-60
2022/04/12 01:38:43;;;;;;;20.00;14.00;;;;;;;-0.02;76.08;100881.50;89731;1272;77687;-64
2022/04/12 01:40:52;;;;;;;19.90;14.30;;;;;;;-0.06;76.11;100884.30;89754;1273;79966;-64
2022/04/12 01:43:01;;;;;;;18.00;13.50;;;;;;;-0.10;76.35;100886.83;89746;1273;102047;-61
2022/04/12 01:45:12;;;;;;;21.20;14.10;;;;;;;-0.13;76.20;100884.64;89632;1277;87681;-64
2022/04/12 01:47:21;;;;;;;22.10;14.10;;;;;;;-0.22;76.36;100884.73;89734;1273;95133;-64
2022/04/12 01:49:29;;;;;;;19.60;14.10;;;;;;;-0.29;76.38;100886.30;89737;1273;79288;-60
2022/04/12 01:51:41;;;;;;;23.00;14.70;;;;;;;-0.38;76.60;100886.44;89721;1273;80519;-60
2022/04/12 01:53:52;;;;;;;21.90;14.50;;;;;;;-0.46;76.47;100887.52;89747;1272;98037;-60
2022/04/12 01:56:01;;;;;;;19.20;13.50;;;;;;;-0.50;76.42;100897.91;89753;1273;88403;-61
2022/04/12 01:58:10;;;;;;;20.20;14.40;;;;;;;-0.49;76.82;100895.85;89729;1273;93209;-61
2022/04/12 02:00:20;;;;;;;19.60;13.10;;;;;;;-0.47;77.07;100896.95;89726;1273;78449;-60
2022/04/12 02:02:29;;;;;;;19.60;13.90;;;;;;;-0.37;77.13;100892.71;89744;1273;82794;-60
2022/04/12 02:04:41;;;;;;;22.80;15.10;;;;;;;-0.34;77.25;100894.67;89755;1273;98243;-65
2022/04/12 02:06:49;;;;;;;21.00;14.50;;;;;;;-0.36;77.09;100898.30;89740;1273;88746;-65
2022/04/12 02:08:58;;;;;;;19.30;13.80;;;;;;;-0.42;77.13;100896.80;89728;1273;94674;-60
2022/04/12 02:11:07;;;;;;;20.60;14.50;;;;;;;-0.49;77.16;100904.73;89763;1273;80779;-60
2022/04/12 02:13:19;;;;;;;21.10;14.90;;;;;;;-0.55;76.94;100903.90;89740;1273;80094;-60
2022/04/12 02:15:27;;;;;;;18.50;14.50;;;;;;;-0.56;77.18;100905.21;89734;1273;98155;-62
2022/04/12 02:17:39;;;;;;;20.00;14.90;;;;;;;-0.56;77.48;100902.94;89742;1273;89146;-60
2022/04/12 02:19:48;;;;;;;19.50;14.20;;;;;;;-0.59;77.33;100900.27;89743;1273;95325;-65
2022/04/12 02:21:56;;;;;;;21.30;14.90;;;;;;;-0.65;77.30;100902.08;89604;1276;80358;-65
2022/04/12 02:24:06;;;;;;;21.70;15.00;;;;;;;-0.66;77.11;100905.36;89753;1273;81496;-65
2022/04/12 02:26:15;;;;;;;20.20;14.40;;;;;;;-0.66;77.49;100905.22;89745;1273;98959;-67
2022/04/12 02:28:24;;;;;;;19.60;14.00;;;;;;;-0.68;77.36;100907.06;89752;1273;89565;-60
2022/04/12 02:30:36;;;;;;;18.60;13.20;;;;;;;-0.69;77.30;100906.63;89741;1273;95669;-60
2022/04/12 02:32:45;;;;;;;17.80;12.90;;;;;;;-0.68;77.37;100908.67;89772;1273;77431;-60
2022/04/12 02:34:57;;;;;;;19.20;13.50;;;;;;;-0.69;77.54;100912.09;89757;1273;82015;-60
2022/04/12 02:37:07;;;;;;;21.10;14.20;;;;;;;-0.72;77.52;100912.99;89681;1273;100605;-60
2022/04/12 02:39:16;;;;;;;19.90;14.40;;;;;;;-0.75;77.46;100917.15;89716;1274;88527;-65
2022/04/12 02:41:28;;;;;;;20.60;14.20;;;;;;;-0.81;77.48;100916.98;89712;1274;95224;-64
2022/04/12 02:43:37;;;;;;;19.80;14.80;;;;;;;-0.88;77.78;100913.78;89716;1274;81424;-64
2022/04/12 02:45:47;;;;;;;18.20;13.00;;;;;;;-0.92;77.95;100916.90;89714;1274;82876;-64
2022/04/12 02:47:59;;;;;;;19.00;13.20;;;;;;;-0.98;77.60;100919.46;89731;1274;100293;-64
2022/04/12 02:50:11;;;;;;;19.10;13.30;;;;;;;-1.05;77.71;100925.59;89719;1274;87818;-60
2022/04/12 02:52:20;;;;;;;20.20;13.30;;;;;;;-1.09;77.77;100924.25;89706;1274;94321;-60
2022/04/12 02:54:28;;;;;;;18.80;14.40;;;;;;;-1.14;77.73;100921.77;89703;1274;80051;-64
2022/04/12 02:56:37;;;;;;;20.40;14.10;;;;;;;-1.12;77.80;100923.73;89724;1274;81055;-65
2022/04/12 02:58:49;;;;;;;22.00;13.90;;;;;;;-1.10;78.09;100922.87;89712;1274;97967;-61
2022/04/12 03:00:58;;;;;;;18.20;13.00;;;;;;;-1.12;77.86;100920.71;89718;1274;89407;-61
2022/04/12 03:03:07;;;;;;;20.30;13.60;;;;;;;-1.11;78.01;100922.46;89723;1274;96416;-61
2022/04/12 03:05:15;;;;;;;20.10;13.80;;;;;;;-1.11;78.20;100922.08;89716;1274;80368;-61
2022/04/12 03:07:24;;;;;;;19.70;13.50;;;;;;;-1.12;78.05;100922.33;89739;1274;81301;-61
2022/04/12 03:09:33;;;;;;;20.40;14.40;;;;;;;-1.15;77.99;100924.15;89729;1274;99205;-65
2022/04/12 03:11:42;;;;;;;19.10;13.30;;;;;;;-1.15;78.22;100929.25;89721;1274;88164;-65
2022/04/12 03:13:50;;;;;;;19.50;14.40;;;;;;;-1.17;78.09;100930.45;89703;1274;95476;-61
2022/04/12 03:16:02;;;;;;;21.30;14.80;;;;;;;-1.19;78.28;100932.17;89700;1274;77940;-61
2022/04/12 03:18:11;;;;;;;20.20;14.00;;;;;;;-1.21;78.31;100939.85;89736;1274;82525;-65
2022/04/12 03:20:20;;;;;;;21.30;14.00;;;;;;;-1.18;78.34;100941.80;89716;1274;99618;-66
2022/04/12 03:22:31;;;;;;;19.10;13.50;;;;;;;-1.17;78.35;100941.42;89711;1273;86475;-65
2022/04/12 03:24:40;;;;;;;20.30;13.40;;;;;;;-1.18;78.29;100939.50;89713;1274;95069;-65
2022/04/12 03:26:49;;;;;;;20.30;13.80;;;;;;;-1.20;78.39;100943.15;89705;1274;78503;-61
2022/04/12 03:28:58;;;;;;;20.70;13.20;;;;;;;-1.19;78.27;100946.27;89721;1274;81983;-61
2022/04/12 03:31:09;;;;;;;21.20;13.50;;;;;;;-1.22;78.25;100946.27;89703;1274;99730;-61
2022/04/12 03:33:22;;;;;;;18.20;13.90;;;;;;;-1.23;78.39;100949.53;89709;1274;88467;-68
2022/04/12 03:35:31;;;;;;;23.70;15.40;;;;;;;-1.26;78.33;100946.05;89703;1274;96406;-67
2022/04/12 03:37:42;;;;;;;20.40;13.50;;;;;;;-1.28;78.43;100948.14;89699;1274;81327;-67
2022/04/12 03:39:55;;;;;;;19.80;13.40;;;;;;;-1.27;78.33;100941.35;89720;1274;80592;-61
2022/04/12 03:42:11;;;;;;;18.70;13.80;;;;;;;-1.24;78.40;100945.04;89706;1274;96908;-61
2022/04/12 03:44:23;;;;;;;20.00;14.30;;;;;;;-1.25;78.38;100944.42;89727;1274;89367;-67
2022/04/12 03:46:31;;;;;;;20.70;14.50;;;;;;;-1.22;78.25;100946.86;89720;1274;95754;-67
2022/04/12 03:48:40;;;;;;;21.20;14.60;;;;;;;-1.27;78.29;100948.20;89703;1274;78609;-61
2022/04/12 03:50:52;;;;;;;21.50;15.60;;;;;;;-1.31;78.60;100945.12;89710;1274;80413;-61
2022/04/12 03:53:01;;;;;;;26.90;15.50;;;;;;;-1.34;78.65;100948.86;89717;1274;98036;-64
2022/04/12 03:55:13;;;;;;;22.00;15.00;;;;;;;-1.34;78.24;100948.52;89727;1274;89074;-66
2022/04/12 03:57:25;;;;;;;21.20;15.10;;;;;;;-1.35;78.50;100951.75;89697;1274;95937;-67
2022/04/12 03:59:37;;;;;;;20.70;14.70;;;;;;;-1.35;78.53;100952.86;89705;1274;80752;-67
2022/04/12 04:01:49;;;;;;;22.40;16.50;;;;;;;-1.37;78.64;100951.02;89718;1274;83520;-67
2022/04/12 04:03:59;;;;;;;22.50;16.60;;;;;;;-1.35;78.46;100953.40;89710;1274;99577;-61
2022/04/12 04:06:08;;;;;;;22.20;16.40;;;;;;;-1.31;78.96;100957.68;89731;1274;88560;-61
2022/04/12 04:08:17;;;;;;;23.00;16.20;;;;;;;-1.27;78.95;100961.33;89721;1274;94224;-67
2022/04/12 04:10:29;;;;;;;23.20;15.70;;;;;;;-1.24;78.93;100967.98;89732;1273;79008;-67
2022/04/12 04:12:42;;;;;;;22.60;15.60;;;;;;;-1.18;78.75;100967.62;89731;1274;80392;-68
2022/04/12 04:14:51;;;;;;;23.30;14.90;;;;;;;-1.12;78.91;100970.41;89721;1274;98845;-61
2022/04/12 04:17:00;;;;;;;22.60;15.60;;;;;;;-1.09;79.21;100970.37;89722;1272;89212;-61
2022/04/12 04:19:10;;;;;;;23.00;15.80;;;;;;;-1.05;78.90;100969.08;89707;1274;95295;-68
2022/04/12 04:21:18;;;;;;;25.60;16.20;;;;;;;-0.95;79.13;100969.09;89697;1274;80695;-61
2022/04/12 04:23:30;;;;;;;23.30;15.60;;;;;;;-0.78;79.18;100967.89;89738;1274;79672;-61
2022/04/12 04:25:39;;;;;;;22.90;15.70;;;;;;;-0.17;79.37;100974.12;89717;1274;99065;-61
2022/04/12 04:27:49;;;;;;;21.60;14.40;;;;;;;0.70;79.29;100968.67;89727;1274;86737;-61
2022/04/12 04:30:03;;;;;;;20.10;16.00;;;;;;;1.69;78.95;100963.41;89718;1274;95784;-61
2022/04/12 04:32:13;;;;;;;;;;;;;;;2.81;78.32;100962.52;89724;1274;77152;-61
2022/04/12 04:34:21;;;;;;;21.50;16.50;;;;;;;2.94;77.23;100962.13;89714;1274;83093;-62
2022/04/12 04:36:30;;;;;;;23.00;16.80;;;;;;;3.42;77.44;100964.48;89600;1276;99929;-69
2022/04/12 04:38:40;;;;;;;23.70;17.20;;;;;;;4.55;76.74;100959.15;89703;1274;86760;-69
2022/04/12 04:40:49;;;;;;;23.80;18.60;;;;;;;5.56;75.65;100956.25;89704;1274;95702;-69
2022/04/12 04:43:02;;;;;;;25.10;17.70;;;;;;;6.44;74.45;100955.62;89723;1274;77986;-69
2022/04/12 04:45:12;;;;;;;22.50;18.20;;;;;;;7.23;73.63;100948.27;89714;1274;81961;-62
2022/04/12 04:47:24;;;;;;;20.20;16.40;;;;;;;7.90;72.80;100956.00;89724;1274;98711;-62
2022/04/12 04:49:32;;;;;;;23.50;16.30;;;;;;;8.71;72.02;100951.78;89619;1276;88834;-62
2022/04/12 04:51:42;;;;;;;19.80;16.60;;;;;;;9.37;70.84;100949.86;89693;1274;95707;-64
2022/04/12 04:53:58;;;;;;;20.70;16.70;;;;;;;9.97;69.27;100950.59;89571;1276;80097;-63
2022/04/12 04:56:11;;;;;;;20.10;16.70;;;;;;;10.31;68.13;100951.39;89381;1276;79924;-62
2022/04/12 04:58:20;;;;;;;20.40;16.70;;;;;;;10.36;67.27;100952.61;89726;1274;100045;-69
2022/04/12 05:00:31;;;;;;;19.70;16.60;;;;;;;9.96;66.85;100950.39;89712;1274;87226;-69
2022/04/12 05:02:40;;;;;;;19.90;17.00;;;;;;;9.88;67.05;100956.71;89707;1274;94764;-65
2022/04/12 05:04:52;;;;;;;23.40;17.60;;;;;;;10.08;66.82;100956.81;89710;1274;78173;-61
2022/04/12 05:07:01;;;;;;;21.20;17.30;;;;;;;10.21;66.00;100956.98;89710;1274;83247;-62
2022/04/12 05:09:11;;;;;;;21.70;18.50;;;;;;;10.19;65.66;100959.05;89709;1273;98240;-61
2022/04/12 05:11:20;;;;;;;22.40;17.40;;;;;;;9.96;64.65;100964.16;89706;1274;88871;-62
2022/04/12 05:13:29;;;;;;;19.20;17.10;;;;;;;9.47;64.83;100968.14;89709;1274;95066;-68
2022/04/12 05:15:37;;;;;;;22.20;18.20;;;;;;;9.57;64.44;100968.29;89695;1274;78491;-67
2022/04/12 05:17:52;;;;;;;22.40;18.40;;;;;;;9.91;64.65;100973.77;89712;1274;83098;-66
2022/04/12 05:20:02;;;;;;;20.10;17.90;;;;;;;10.41;64.37;100975.79;89694;1274;100176;-66
2022/04/12 05:22:14;;;;;;;20.80;18.40;;;;;;;10.67;63.89;100979.70;89703;1274;86832;-66
2022/04/12 05:24:23;;;;;;;20.00;17.20;;;;;;;11.72;63.90;100987.48;89699;1274;95896;-66
2022/04/12 05:26:31;;;;;;;23.20;18.60;;;;;;;13.24;63.08;100984.89;89681;1274;80953;-65
2022/04/12 05:28:43;;;;;;;19.70;17.50;;;;;;;14.02;61.62;100984.15;89716;1274;83231;-62
2022/04/12 05:30:51;;;;;;;20.90;18.70;;;;;;;15.16;61.57;100984.45;89706;1274;98631;-62
2022/04/12 05:33:01;;;;;;;20.20;17.90;;;;;;;16.19;59.80;100995.48;89687;1274;87537;-65
2022/04/12 05:35:12;;;;;;;20.90;17.90;;;;;;;16.73;57.68;100994.40;89687;1274;94057;-64
2022/04/12 05:37:21;;;;;;;19.90;17.80;;;;;;;16.88;57.48;100995.30;89711;1274;79333;-61
2022/04/12 05:39:32;;;;;;;19.90;17.60;;;;;;;17.34;57.12;100996.19;89693;1274;81944;-69
2022/04/12 05:41:53;;;;;;;20.30;18.10;;;;;;;17.75;56.17;101001.40;89689;1274;99103;-68
2022/04/12 05:44:03;;;;;;;21.00;17.40;;;;;;;18.22;54.76;101002.02;89703;1274;87567;-62
2022/04/12 05:46:11;;;;;;;20.20;18.10;;;;;;;18.61;53.48;101005.16;89701;1274;94871;-61
2022/04/12 05:48:20;;;;;;;20.10;16.80;;;;;;;19.00;52.61;101005.41;89575;1276;78796;-69
2022/04/12 05:50:30;;;;;;;19.50;16.60;;;;;;;19.01;51.30;101006.64;89638;1276;81318;-69
2022/04/12 05:52:39;;;;;;;21.60;16.30;;;;;;;19.39;49.93;101002.86;89694;1274;99765;-69
2022/04/12 05:54:49;;;;;;;23.90;18.70;;;;;;;19.89;49.28;101006.84;89697;1274;88731;-61
2022/04/12 05:57:00;;;;;;;21.50;17.40;;;;;;;20.26;48.35;101006.80;89710;1274;94144;-61
2022/04/12 05:59:09;;;;;;;20.50;16.80;;;;;;;20.59;47.44;101011.22;89691;1274;79761;-62
2022/04/12 06:01:18;;;;;;;20.70;16.40;;;;;;;21.15;46.78;101019.54;89706;1274;80996;-61
2022/04/12 06:03:30;;;;;;;18.80;16.00;;;;;;;21.58;46.19;101019.08;89701;1274;100856;-61
2022/04/12 06:05:39;;;;;;;19.20;16.40;;;;;;;22.02;45.28;101017.92;89722;1274;89071;-61
2022/04/12 06:07:48;;;;;;;18.30;16.20;;;;;;;21.83;44.85;101018.94;89698;1274;94825;-61
2022/04/12 06:09:57;;;;;;;16.90;15.10;;;;;;;22.21;43.74;101019.56;89702;1274;77127;-68
2022/04/12 06:12:06;;;;;;;18.50;15.40;;;;;;;22.39;43.78;101020.13;89709;1274;82612;-69
2022/04/12 06:14:15;;;;;;;17.30;15.00;;;;;;;22.78;43.40;101021.55;89718;1274;99812;-61
2022/04/12 06:16:24;;;;;;;16.10;14.40;;;;;;;23.25;42.81;101022.73;89706;1274;88494;-61
2022/04/12 06:18:33;;;;;;;17.20;14.80;;;;;;;23.75;41.76;101021.80;89698;1274;95849;-61
2022/04/12 06:20:43;;;;;;;16.40;14.40;;;;;;;23.56;40.90;101019.35;89709;1274;77834;-61
2022/04/12 06:22:52;;;;;;;15.00;13.50;;;;;;;23.79;40.37;101020.98;89723;1274;80370;-61
2022/04/12 06:25:05;;;;;;;16.70;14.10;;;;;;;23.81;39.77;101021.93;89704;1274;98859;-61
2022/04/12 06:27:14;;;;;;;13.90;12.50;;;;;;;23.98;39.34;101021.77;89716;1274;89272;-61
2022/04/12 06:29:27;;;;;;;15.50;13.30;;;;;;;24.32;39.01;101023.11;89718;1274;94545;-61
2022/04/12 06:31:36;;;;;;;15.70;13.10;;;;;;;24.53;38.60;101022.60;89705;1274;79742;-61
2022/04/12 06:33:48;;;;;;;13.40;11.90;;;;;;;24.99;38.04;101027.02;89724;1274;80969;-69
2022/04/12 06:35:57;;;;;;;15.20;13.70;;;;;;;25.39;37.80;101027.84;89698;1274;100185;-69
2022/04/12 06:38:08;;;;;;;13.80;12.40;;;;;;;25.47;37.92;101030.69;89703;1274;90649;-61
2022/04/12 06:40:21;;;;;;;15.40;13.90;;;;;;;25.94;36.50;101030.85;89625;1276;95873;-61
2022/04/12 06:42:32;;;;;;;15.70;14.10;;;;;;;25.99;35.99;101030.02;89626;1276;78419;-61
2022/04/12 06:44:42;;;;;;;14.80;13.30;;;;;;;26.01;35.39;101028.76;89643;1276;82460;-69
2022/04/12 06:46:53;;;;;;;14.10;12.60;;;;;;;26.00;34.54;101032.57;89641;1275;100221;-69
2022/04/12 06:49:03;;;;;;;13.60;12.20;;;;;;;26.50;34.55;101032.15;89582;1276;88209;-68
2022/04/12 06:51:15;;;;;;;13.30;11.70;;;;;;;26.46;34.43;101035.15;89659;1276;94734;-69
2022/04/12 06:53:27;;;;;;;12.90;11.60;;;;;;;26.35;33.81;101038.92;89631;1276;78579;-69
2022/04/12 06:55:36;;;;;;;13.70;12.00;;;;;;;26.23;33.30;101042.46;89650;1275;80257;-69
2022/04/12 06:57:48;;;;;;;12.70;11.40;;;;;;;26.43;32.57;101038.70;89656;1276;98239;-69
2022/04/12 06:59:57;;;;;;;13.50;11.10;;;;;;;26.62;32.30;101040.44;89655;1275;88995;-61
2022/04/12 07:02:08;;;;;;;13.10;11.30;;;;;;;26.68;32.46;101038.83;89556;1276;95531;-60
2022/04/12 07:04:17;;;;;;;13.30;11.60;;;;;;;27.11;31.92;101041.45;89633;1276;79351;-61
2022/04/12 07:06:26;;;;;;;10.80;9.50;;;;;;;27.42;30.94;101044.43;89653;1276;81388;-61
2022/04/12 07:08:36;;;;;;;10.30;9.30;;;;;;;27.79;31.17;101044.80;89634;1276;97717;-61
2022/04/12 07:10:45;;;;;;;9.90;9.00;;;;;;;28.23;30.69;101043.48;89627;1276;87455;-61
2022/04/12 07:12:54;;;;;;;9.40;8.40;;;;;;;28.31;30.33;101046.59;89625;1276;95392;-61
2022/04/12 07:15:04;;;;;;;9.80;8.80;;;;;;;28.37;30.05;101048.25;89560;1276;78747;-61
2022/04/12 07:17:13;;;;;;;9.50;8.20;;;;;;;28.67;29.80;101045.88;89625;1276;81058;-61
2022/04/12 07:19:25;;;;;;;10.00;9.00;;;;;;;28.64;29.14;101049.30;89644;1276;100418;-69
2022/04/12 07:21:34;;;;;;;9.70;8.30;;;;;;;28.43;29.18;101049.66;89635;1276;88523;-69
2022/04/12 07:23:47;;;;;;;8.30;7.50;;;;;;;27.88;28.42;101051.62;89626;1276;94367;-61
2022/04/12 07:25:56;;;;;;;9.60;8.60;;;;;;;27.61;28.30;101049.30;89628;1276;78190;-61
2022/04/12 07:28:05;;;;;;;10.10;9.00;;;;;;;27.90;28.41;101048.23;89638;1276;82193;-67
2022/04/12 07:30:16;;;;;;;9.50;7.10;;;;;;;28.46;28.26;101050.51;89636;1276;99134;-69
2022/04/12 07:32:28;;;;;;;7.90;7.10;;;;;;;29.01;28.02;101047.41;89640;1276;88901;-69
2022/04/12 07:34:37;;;;;;;6.90;6.10;;;;;;;29.24;27.55;101052.84;89627;1276;96020;-62
2022/04/12 07:36:53;;;;;;;7.20;6.50;;;;;;;29.32;26.44;101055.40;89638;1276;78809;-61
2022/04/12 07:39:02;;;;;;;7.90;6.70;;;;;;;29.46;26.77;101051.55;89680;1274;82111;-61
2022/04/12 07:41:12;;;;;;;7.90;6.70;;;;;;;29.44;26.85;101058.55;89685;1274;100587;-61
2022/04/12 07:43:24;;;;;;;5.10;4.60;;;;;;;29.26;26.41;101061.17;89647;1276;87774;-69
2022/04/12 07:45:33;;;;;;;7.00;5.70;;;;;;;28.40;25.85;101062.63;89683;1274;94154;-69
2022/04/12 07:47:45;;;;;;;5.80;5.20;;;;;;;28.42;26.45;101061.19;89680;1274;77939;-69
2022/04/12 07:49:57;;;;;;;6.80;5.30;;;;;;;28.80;25.75;101060.39;89686;1274;80872;-69
2022/04/12 07:52:08;;;;;;;5.70;5.10;;;;;;;28.77;25.12;101065.70;89692;1274;100012;-70
2022/04/12 07:54:20;;;;;;;6.20;5.00;;;;;;;28.53;25.81;101065.58;89701;1274;89234;-61
2022/04/12 07:56:29;;;;;;;5.70;3.60;;;;;;;28.12;25.79;101067.92;89702;1274;94722;-61
2022/04/12 07:58:39;;;;;;;5.90;4.40;;;;;;;28.92;25.56;101071.88;89695;1274;79125;-70
2022/04/12 08:00:48;;;;;;;5.50;3.70;;;;;;;29.00;25.44;101069.30;89706;1274;80548;-70
2022/04/12 08:03:00;;;;;;;5.50;4.00;;;;;;;29.09;25.36;101069.58;89703;1274;99830;-68
2022/04/12 08:05:11;;;;;;;6.60;4.60;;;;;;;29.35;25.11;101065.83;89689;1274;89517;-69
2022/04/12 08:07:20;;;;;;;5.50;3.60;;;;;;;29.32;24.70;101066.91;89687;1274;95410;-69
2022/04/12 08:09:29;;;;;;;4.80;3.50;;;;;;;28.89;24.23;101063.79;89716;1274;77996;-68
2022/04/12 08:11:39;;;;;;;4.70;3.80;;;;;;;27.22;23.64;101069.20;89704;1274;79734;-69
2022/04/12 08:13:48;;;;;;;5.00;4.00;;;;;;;24.97;24.58;101075.05;89703;1274;100581;-69
2022/04/12 08:15:58;;;;;;;4.20;3.50;;;;;;;23.41;25.22;101076.63;89695;1274;89737;-68
2022/04/12 08:18:10;;;;;;;7.00;4.00;;;;;;;22.28;25.91;101081.60;89692;1274;93850;-61
2022/04/12 08:20:19;;;;;;;4.90;3.70;;;;;;;22.30;27.19;101074.64;89681;1274;78486;-67
2022/04/12 08:22:28;;;;;;;5.70;3.80;;;;;;;22.49;26.61;101076.67;89694;1274;81353;-61
2022/04/12 08:24:37;;;;;;;5.80;3.60;;;;;;;21.80;26.80;101082.09;89679;1274;97281;-69
2022/04/12 08:26:49;;;;;;;4.20;3.20;;;;;;;21.45;27.23;101085.86;89699;1272;87726;-71
2022/04/12 08:28:59;;;;;;;6.10;3.60;;;;;;;20.84;27.03;101087.74;89706;1274;95191;-62
2022/04/12 08:31:08;;;;;;;4.30;3.30;;;;;;;20.38;28.08;101088.55;89696;1274;79992;-61
2022/04/12 08:33:26;;;;;;;3.80;2.90;;;;;;;21.81;28.21;101089.42;89720;1274;81383;-69
2022/04/12 08:35:39;;;;;;;5.70;3.50;;;;;;;22.86;27.95;101084.38;89707;1274;96879;-62
2022/04/12 08:37:53;;;;;;;3.70;2.50;;;;;;;23.24;27.15;101087.56;89698;1274;88042;-60
2022/04/12 08:40:05;;;;;;;4.00;3.10;;;;;;;23.39;26.78;101082.04;89700;1274;94392;-61
2022/04/12 08:42:15;;;;;;;3.60;2.70;;;;;;;22.80;26.43;101082.61;89717;1274;77106;-70
2022/04/12 08:44:30;;;;;;;4.20;2.80;;;;;;;21.85;25.98;101089.52;89713;1274;80759;-63
2022/04/12 08:46:48;;;;;;;4.70;2.60;;;;;;;21.07;26.30;101087.36;89699;1274;99899;-70
2022/04/12 08:49:04;;;;;;;4.10;2.10;;;;;;;19.87;26.95;101089.84;89587;1276;88328;-71
2022/04/12 08:51:13;;;;;;;3.50;2.50;;;;;;;19.18;27.26;101088.60;89687;1274;95898;-70
2022/04/12 08:53:24;;;;;;;4.70;3.20;;;;;;;19.43;28.33;101082.83;89686;1274;77706;-70
2022/04/12 08:55:36;;;;;;;4.30;2.70;;;;;;;20.75;28.31;101076.00;89700;1274;82509;-75
2022/04/12 08:57:45;;;;;;;4.50;2.80;;;;;;;21.80;28.22;101078.25;89713;1274;98235;-69
2022/04/12 08:59:56;;;;;;;5.20;2.90;;;;;;;22.22;27.05;101081.65;89708;1274;88770;-71
2022/04/12 09:02:11;;;;;;;4.30;2.90;;;;;;;21.05;27.08;101081.63;89697;1274;95991;-64
2022/04/12 09:04:26;;;;;;;3.50;2.60;;;;;;;19.98;27.10;101088.53;89691;1274;80554;-68
2022/04/12 09:06:48;;;;;;;3.60;2.70;;;;;;;19.71;28.21;101088.35;89600;1274;81662;-68
2022/04/12 09:09:14;;;;;;;3.40;2.50;;;;;;;20.84;27.88;101082.02;89690;1274;99933;-65
2022/04/12 09:11:24;;;;;;;4.50;2.90;;;;;;;21.84;27.95;101082.45;89696;1274;87569;-65
2022/04/12 09:13:37;;;;;;;3.80;2.90;;;;;;;22.64;27.10;101081.71;89687;1274;95929;-68
2022/04/12 09:15:50;;;;;;;3.60;2.60;;;;;;;23.11;26.53;101080.10;89697;1274;77461;-68
2022/04/12 09:18:03;;;;;;;5.30;3.00;;;;;;;23.55;26.37;101081.96;89727;1274;79859;-66
2022/04/12 09:20:20;;;;;;;4.50;2.80;;;;;;;23.11;26.29;101073.11;89709;1274;98221;-66
2022/04/12 09:22:34;;;;;;;4.30;2.90;;;;;;;23.19;26.24;101073.98;89707;1274;86810;-64
2022/04/12 09:24:54;;;;;;;3.90;2.60;;;;;;;22.55;26.16;101075.25;89696;1273;93677;-69
2022/04/12 09:27:40;;;;;;;5.50;3.00;;;;;;;22.12;26.10;101077.09;89606;1276;80805;-68
2022/04/12 09:29:54;;;;;;;4.50;3.20;;;;;;;21.65;26.79;101076.64;89705;1274;80785;-68
2022/04/12 09:32:04;;;;;;;4.90;3.10;;;;;;;21.96;26.79;101073.93;89696;1274;100207;-68
2022/04/12 09:34:13;;;;;;;4.50;3.20;;;;;;;22.14;26.52;101072.89;89693;1274;87601;-69
2022/04/12 09:36:26;;;;;;;5.50;3.60;;;;;;;21.99;26.50;101071.97;89661;1274;95655;-60
2022/04/12 09:38:39;;;;;;;5.20;3.30;;;;;;;21.81;26.64;101075.40;89671;1274;78062;-60
2022/04/12 09:40:49;;;;;;;;;;;;;;;20.95;26.71;101074.11;89700;1274;82449;-60
2022/04/12 09:43:12;;;;;;;3.30;2.60;;;;;;;20.09;27.03;101073.52;89682;1274;98406;-60
2022/04/12 09:45:26;;;;;;;5.30;2.90;;;;;;;19.12;27.06;101079.18;89695;1274;87098;-60
2022/04/12 09:47:36;;;;;;;4.60;2.10;;;;;;;18.37;27.39;101078.42;89683;1274;95411;-60
2022/04/12 09:49:50;;;;;;;3.90;2.00;;;;;;;17.63;27.69;101086.43;89688;1274;80541;-69
2022/04/12 09:52:12;;;;;;;4.20;2.60;;;;;;;17.40;28.25;101081.59;89699;1274;80719;-69
2022/04/12 09:54:34;;;;;;;4.40;2.70;;;;;;;17.62;28.43;101076.54;89680;1274;100019;-69
2022/04/12 09:56:46;;;;;;;4.80;3.10;;;;;;;17.87;28.63;101073.66;89568;1275;89221;-69
2022/04/12 09:59:00;;;;;;;5.50;3.60;;;;;;;17.88;28.15;101070.83;89677;1274;93522;-60
2022/04/12 10:01:09;;;;;;;4.10;3.10;;;;;;;17.51;28.46;101072.30;89693;1274;78147;-60
2022/04/12 10:03:21;;;;;;;4.90;2.90;;;;;;;17.59;28.46;101075.89;89687;1274;82813;-68